createdAt,value
2023-01-09T00:04:19.914Z,98.76
2023-01-09T00:09:25.782Z,98.96
2023-01-09T00:14:28.502Z,99.21
2023-01-09T00:19:31.299Z,99.20
2023-01-09T00:24:34.101Z,99.34
2023-01-09T00:29:36.783Z,99.61
2023-01-09T00:34:40.208Z,99.52
2023-01-09T00:39:43.328Z,99.87
2023-01-09T00:44:52.752Z,99.83
2023-01-09T00:50:03.025Z,99.87
2023-01-09T00:55:06.923Z,99.88
2023-01-09T01:00:10.996Z,100.00
2023-01-09T01:05:32.245Z,100.00
2023-01-09T01:10:35.931Z,99.95
2023-01-09T01:15:40.480Z,99.97
2023-01-09T01:20:44.869Z,99.97
2023-01-09T01:25:47.652Z,99.96
2023-01-09T01:30:50.399Z,99.95
2023-01-09T01:36:09.030Z,100.00
2023-01-09T01:41:11.704Z,100.00
2023-01-09T01:46:17.126Z,100.00
2023-01-09T01:51:22.260Z,100.00
2023-01-09T01:56:30.425Z,100.00
2023-01-09T02:01:34.401Z,99.97
2023-01-09T02:06:38.093Z,99.88
2023-01-09T02:11:49.189Z,100.00
2023-01-09T02:16:57.428Z,99.93
2023-01-09T02:22:19.258Z,99.95
2023-01-09T02:27:50.259Z,99.99
2023-01-09T02:32:58.889Z,99.91
2023-01-09T02:38:38.529Z,100.00
2023-01-09T02:43:41.900Z,100.00
2023-01-09T02:48:45.671Z,100.00
2023-01-09T02:54:27.522Z,100.00
2023-01-09T02:59:43.423Z,100.00
2023-01-09T03:04:46.242Z,100.00
2023-01-09T03:09:54.023Z,100.00
2023-01-09T03:15:00.311Z,100.00
2023-01-09T03:20:07.337Z,100.00
2023-01-09T03:25:10.131Z,100.00
2023-01-09T03:30:13.275Z,100.00
2023-01-09T03:35:15.928Z,100.00
2023-01-09T03:40:19.766Z,100.00
2023-01-09T03:45:22.471Z,100.00
2023-01-09T03:50:25.267Z,100.00
2023-01-09T03:55:28.169Z,100.00
2023-01-09T04:00:31.161Z,100.00
2023-01-09T04:05:34.196Z,100.00
2023-01-09T04:10:36.884Z,100.00
2023-01-09T04:15:39.679Z,100.00
2023-01-09T04:20:42.687Z,100.00
2023-01-09T04:25:45.883Z,100.00
2023-01-09T04:30:48.596Z,100.00
2023-01-09T04:35:51.343Z,100.00
2023-01-09T04:40:54.076Z,100.00
2023-01-09T04:45:56.896Z,100.00
2023-01-09T04:50:59.678Z,100.00
2023-01-09T04:56:02.592Z,100.00
2023-01-09T05:01:05.492Z,100.00
2023-01-09T05:06:08.284Z,100.00
2023-01-09T05:11:11.007Z,100.00
2023-01-09T05:16:13.745Z,100.00
2023-01-09T05:21:16.572Z,100.00
2023-01-09T05:26:24.154Z,100.00
2023-01-09T05:31:27.423Z,100.00
2023-01-09T05:36:30.262Z,100.00
2023-01-09T05:41:33.144Z,100.00
2023-01-09T05:46:35.845Z,100.00
2023-01-09T05:51:38.539Z,100.00
2023-01-09T05:56:42.781Z,100.00
2023-01-09T06:01:45.614Z,100.00
2023-01-09T06:06:48.591Z,100.00
2023-01-09T06:11:51.812Z,100.00
2023-01-09T06:16:54.496Z,100.00
2023-01-09T06:21:57.630Z,100.00
2023-01-09T06:27:00.518Z,100.00
2023-01-09T06:32:03.220Z,100.00
2023-01-09T06:37:06.008Z,100.00
2023-01-09T06:42:08.715Z,100.00
2023-01-09T06:47:11.651Z,100.00
2023-01-09T06:52:14.356Z,100.00
2023-01-09T06:57:17.405Z,99.88
2023-01-09T07:02:23.709Z,99.98
2023-01-09T07:07:26.778Z,100.00
2023-01-09T07:12:29.542Z,100.00
2023-01-09T07:17:32.864Z,99.85
2023-01-09T07:22:35.789Z,99.79
2023-01-09T07:27:38.602Z,99.86
2023-01-09T07:32:41.634Z,99.65
2023-01-09T07:37:44.345Z,99.78
2023-01-09T07:42:47.100Z,99.84
2023-01-09T07:47:50.085Z,99.78
2023-01-09T07:52:52.832Z,99.58
2023-01-09T07:57:55.675Z,99.56
2023-01-09T08:02:58.512Z,99.58
2023-01-09T08:08:02.128Z,100.00
2023-01-09T08:13:05.171Z,99.96
2023-01-09T08:18:07.885Z,99.70
2023-01-09T08:23:10.542Z,99.74
2023-01-09T08:28:13.475Z,99.69
2023-01-09T08:33:16.258Z,99.61
2023-01-09T08:38:19.222Z,99.48
2023-01-09T08:43:40.756Z,99.38
2023-01-09T08:48:43.760Z,99.50
2023-01-09T08:53:46.506Z,99.48
2023-01-09T08:58:49.219Z,99.56
2023-01-09T09:03:51.930Z,99.15
2023-01-09T09:08:54.721Z,99.29
2023-01-09T09:13:58.094Z,99.42
2023-01-09T09:19:01.077Z,99.24
2023-01-09T09:24:03.877Z,99.10
2023-01-09T09:29:06.727Z,99.42
2023-01-09T09:34:10.599Z,99.32
2023-01-09T09:39:13.579Z,99.34
2023-01-09T09:44:48.341Z,99.30
2023-01-09T09:50:10.708Z,99.38
2023-01-09T09:55:29.801Z,98.82
2023-01-09T10:00:33.168Z,98.49
2023-01-09T10:05:48.889Z,98.58
2023-01-09T10:10:56.297Z,98.05
2023-01-09T10:16:04.942Z,98.07
2023-01-09T10:21:15.870Z,98.17
2023-01-09T10:26:35.575Z,98.20
2023-01-09T10:31:47.545Z,98.54
2023-01-09T10:37:05.738Z,98.12
2023-01-09T10:42:18.581Z,98.18
2023-01-09T10:47:28.642Z,97.73
2023-01-09T10:52:39.965Z,97.60
2023-01-09T10:57:45.002Z,97.50
2023-01-09T11:02:48.822Z,97.34
2023-01-09T11:08:28.481Z,97.10
2023-01-09T11:13:36.788Z,97.03
2023-01-09T11:18:51.651Z,97.46
2023-01-09T11:24:22.902Z,97.36
2023-01-09T11:29:25.794Z,97.14
2023-01-09T11:34:31.861Z,96.97
2023-01-09T11:39:38.112Z,96.86
2023-01-09T11:44:40.866Z,96.90
2023-01-09T11:49:43.574Z,96.77
2023-01-09T11:54:56.497Z,96.20
2023-01-09T12:00:04.600Z,96.19
2023-01-09T12:05:33.954Z,96.38
2023-01-09T12:10:58.288Z,96.71
2023-01-09T12:16:38.008Z,96.42
2023-01-09T12:22:02.498Z,96.27
2023-01-09T12:27:17.143Z,96.12
2023-01-09T12:32:37.808Z,96.27
2023-01-09T12:37:49.075Z,96.33
2023-01-09T12:43:07.130Z,96.41
2023-01-09T12:48:40.988Z,96.40
2023-01-09T12:53:59.374Z,96.30
2023-01-09T12:59:09.300Z,96.45
2023-01-09T13:04:25.767Z,96.50
2023-01-09T13:09:49.098Z,96.20
2023-01-09T13:15:03.987Z,96.36
2023-01-09T13:20:22.948Z,96.31
2023-01-09T13:25:49.263Z,96.40
2023-01-09T13:31:10.597Z,96.50
2023-01-09T13:36:24.919Z,96.72
2023-01-09T13:41:55.246Z,96.82
2023-01-09T13:47:02.393Z,97.24
2023-01-09T13:52:26.525Z,97.43
2023-01-09T13:57:38.426Z,97.50
2023-01-09T14:02:41.418Z,97.50
2023-01-09T14:07:49.153Z,97.71
2023-01-09T14:12:54.966Z,97.70
2023-01-09T14:18:04.573Z,97.73
2023-01-09T14:23:45.590Z,97.77
2023-01-09T14:28:33.085Z,98.00
2023-01-09T14:33:36.091Z,97.71
2023-01-09T14:38:52.363Z,97.78
2023-01-09T14:44:02.080Z,97.85
2023-01-09T14:49:32.019Z,98.21
2023-01-09T14:54:41.210Z,97.94
2023-01-09T14:59:55.608Z,97.96
2023-01-09T15:05:02.600Z,98.03
2023-01-09T15:10:05.504Z,98.11
2023-01-09T15:15:15.272Z,98.24
2023-01-09T15:20:24.956Z,98.14
2023-01-09T15:25:39.589Z,98.15
2023-01-09T15:30:43.429Z,98.54
2023-01-09T15:35:49.564Z,98.29
2023-01-09T15:41:07.566Z,98.35
2023-01-09T15:46:16.983Z,98.34
2023-01-09T15:51:20.681Z,98.52
2023-01-09T15:56:25.612Z,98.34
2023-01-09T16:01:33.875Z,98.75
2023-01-09T16:06:45.410Z,98.78
2023-01-09T16:11:55.407Z,98.77
2023-01-09T16:17:07.654Z,98.96
2023-01-09T16:22:37.109Z,99.18
2023-01-09T16:27:39.808Z,99.47
2023-01-09T16:32:51.616Z,99.36
2023-01-09T16:37:54.417Z,99.41
2023-01-09T16:43:01.456Z,99.59
2023-01-09T16:48:23.139Z,99.56
2023-01-09T16:53:27.380Z,99.78
2023-01-09T16:58:32.552Z,99.85
2023-01-09T17:03:35.338Z,99.96
2023-01-09T17:08:38.069Z,99.97
2023-01-09T17:13:40.840Z,100.00
2023-01-09T17:18:43.932Z,100.00
2023-01-09T17:23:47.075Z,100.00
2023-01-09T17:28:51.198Z,100.00
2023-01-09T17:33:54.397Z,99.99
2023-01-09T17:38:57.628Z,99.98
2023-01-09T17:44:00.530Z,99.97
2023-01-09T17:49:05.465Z,99.98
2023-01-09T17:54:08.915Z,99.99
2023-01-09T17:59:15.676Z,100.00
2023-01-09T18:04:18.437Z,100.00
2023-01-09T18:09:21.278Z,99.98
2023-01-09T18:14:24.090Z,99.99
2023-01-09T18:19:26.779Z,100.00
2023-01-09T18:24:29.582Z,100.00
2023-01-09T18:29:32.383Z,100.00
2023-01-09T18:34:35.184Z,100.00
2023-01-09T18:39:37.906Z,100.00
2023-01-09T18:44:40.608Z,100.00
2023-01-09T18:49:43.385Z,100.00
2023-01-09T18:54:46.075Z,100.00
2023-01-09T18:59:48.887Z,99.98
2023-01-09T19:04:51.654Z,99.71
2023-01-09T19:09:54.352Z,99.93
2023-01-09T19:14:57.165Z,99.97
2023-01-09T19:19:59.987Z,99.91
2023-01-09T19:25:03.011Z,99.98
2023-01-09T19:30:06.988Z,99.98
2023-01-09T19:35:09.937Z,100.00
2023-01-09T19:40:12.975Z,100.00
2023-01-09T19:45:15.744Z,100.00
2023-01-09T19:50:18.849Z,99.98
2023-01-09T19:55:21.843Z,100.00
2023-01-09T20:00:24.612Z,100.00
2023-01-09T20:05:27.385Z,100.00
2023-01-09T20:10:30.140Z,100.00
2023-01-09T20:15:32.854Z,100.00
2023-01-09T20:20:36.227Z,100.00
2023-01-09T20:25:39.586Z,100.00
2023-01-09T20:30:48.307Z,100.00
2023-01-09T20:35:51.128Z,100.00
2023-01-09T20:40:53.818Z,100.00
2023-01-09T20:46:01.547Z,100.00
2023-01-09T20:51:07.107Z,100.00
2023-01-09T20:56:10.421Z,100.00
2023-01-09T21:01:14.074Z,100.00
2023-01-09T21:06:18.278Z,100.00
2023-01-09T21:11:22.475Z,100.00
2023-01-09T21:16:25.641Z,100.00
2023-01-09T21:21:29.489Z,100.00
2023-01-09T21:26:32.260Z,100.00
2023-01-09T21:31:35.554Z,100.00
2023-01-09T21:36:38.991Z,100.00
2023-01-09T21:42:00.718Z,100.00
2023-01-09T21:47:03.527Z,100.00
2023-01-09T21:52:07.207Z,100.00
2023-01-09T21:57:10.661Z,100.00
2023-01-09T22:02:15.742Z,100.00
2023-01-09T22:07:18.518Z,100.00
2023-01-09T22:12:21.212Z,100.00
2023-01-09T22:17:24.015Z,100.00
2023-01-09T22:22:26.667Z,100.00
2023-01-09T22:27:29.347Z,100.00
2023-01-09T22:32:32.112Z,100.00
2023-01-09T22:37:34.819Z,100.00
2023-01-09T22:42:37.729Z,100.00
2023-01-09T22:47:40.644Z,100.00
2023-01-09T22:52:43.593Z,100.00
2023-01-09T22:57:46.254Z,100.00
2023-01-09T23:02:49.130Z,100.00
2023-01-09T23:07:51.972Z,100.00
2023-01-09T23:12:54.654Z,100.00
2023-01-09T23:17:58.131Z,100.00
2023-01-09T23:23:00.842Z,100.00
2023-01-09T23:28:03.638Z,100.00
2023-01-09T23:33:06.346Z,100.00
2023-01-09T23:38:11.515Z,100.00
2023-01-09T23:43:15.463Z,100.00
2023-01-09T23:48:18.976Z,100.00
2023-01-09T23:53:23.073Z,100.00
2023-01-09T23:58:26.534Z,100.00
